sensor_id;sensor_type;location;lat;lon;timestamp;P1;durP1;ratioP1;P2;durP2;ratioP2
56927;SDS011;60850;52.502;13.426;2023-05-15T00:00:02;13.65;;;9.50;;
56927;SDS011;60850;52.502;13.426;2023-05-15T00:02:53;12.07;;;9.07;;
56927;SDS011;60850;52.502;13.426;2023-05-15T00:05:21;13.65;;;9.60;;
56927;SDS011;60850;52.502;13.426;2023-05-15T00:07:49;16.13;;;9.02;;
56927;SDS011;60850;52.502;13.426;2023-05-15T00:10:16;15.43;;;9.25;;
56927;SDS011;60850;52.502;13.426;2023-05-15T00:12:43;12.48;;;9.30;;
56927;SDS011;60850;52.502;13.426;2023-05-15T00:15:10;12.23;;;8.57;;
56927;SDS011;60850;52.502;13.426;2023-05-15T00:17:37;11.45;;;9.32;;
56927;SDS011;60850;52.502;13.426;2023-05-15T00:20:04;13.73;;;8.88;;
56927;SDS011;60850;52.502;13.426;2023-05-15T00:22:34;14.68;;;8.90;;
56927;SDS011;60850;52.502;13.426;2023-05-15T00:25:02;12.73;;;9.13;;
56927;SDS011;60850;52.502;13.426;2023-05-15T00:27:30;12.02;;;9.10;;
56927;SDS011;60850;52.502;13.426;2023-05-15T00:29:56;11.65;;;9.35;;
56927;SDS011;60850;52.502;13.426;2023-05-15T00:32:23;15.48;;;9.45;;
56927;SDS011;60850;52.502;13.426;2023-05-15T00:34:50;11.48;;;9.05;;
56927;SDS011;60850;52.502;13.426;2023-05-15T00:37:17;11.23;;;9.10;;
56927;SDS011;60850;52.502;13.426;2023-05-15T00:39:44;16.23;;;9.45;;
56927;SDS011;60850;52.502;13.426;2023-05-15T00:42:12;14.57;;;9.52;;
56927;SDS011;60850;52.502;13.426;2023-05-15T00:44:41;12.20;;;8.93;;
56927;SDS011;60850;52.502;13.426;2023-05-15T00:47:09;13.88;;;9.90;;
56927;SDS011;60850;52.502;13.426;2023-05-15T00:49:36;12.98;;;9.27;;
56927;SDS011;60850;52.502;13.426;2023-05-15T00:52:04;14.05;;;10.00;;
56927;SDS011;60850;52.502;13.426;2023-05-15T00:54:32;13.23;;;9.50;;
56927;SDS011;60850;52.502;13.426;2023-05-15T00:56:59;10.43;;;8.50;;
56927;SDS011;60850;52.502;13.426;2023-05-15T00:59:31;12.38;;;8.77;;
56927;SDS011;60850;52.502;13.426;2023-05-15T01:01:59;12.93;;;8.75;;
56927;SDS011;60850;52.502;13.426;2023-05-15T01:04:26;10.98;;;8.32;;
56927;SDS011;60850;52.502;13.426;2023-05-15T01:06:53;11.82;;;9.13;;
56927;SDS011;60850;52.502;13.426;2023-05-15T01:09:22;12.13;;;8.65;;
56927;SDS011;60850;52.502;13.426;2023-05-15T01:11:52;13.02;;;8.57;;
56927;SDS011;60850;52.502;13.426;2023-05-15T01:14:19;12.45;;;8.55;;
56927;SDS011;60850;52.502;13.426;2023-05-15T01:16:48;10.55;;;8.77;;
56927;SDS011;60850;52.502;13.426;2023-05-15T01:19:15;10.65;;;8.77;;
56927;SDS011;60850;52.502;13.426;2023-05-15T01:21:56;11.18;;;8.73;;
56927;SDS011;60850;52.502;13.426;2023-05-15T01:25:07;12.25;;;8.57;;
56927;SDS011;60850;52.502;13.426;2023-05-15T01:27:55;10.02;;;7.82;;
56927;SDS011;60850;52.502;13.426;2023-05-15T01:30:25;11.02;;;8.18;;
56927;SDS011;60850;52.502;13.426;2023-05-15T01:32:56;12.60;;;7.93;;
56927;SDS011;60850;52.502;13.426;2023-05-15T01:35:30;9.32;;;7.75;;
56927;SDS011;60850;52.502;13.426;2023-05-15T01:38:04;9.38;;;8.15;;
56927;SDS011;60850;52.502;13.426;2023-05-15T01:40:38;13.20;;;8.80;;
56927;SDS011;60850;52.502;13.426;2023-05-15T01:43:08;13.40;;;9.35;;
56927;SDS011;60850;52.502;13.426;2023-05-15T01:45:41;13.25;;;8.75;;
56927;SDS011;60850;52.502;13.426;2023-05-15T01:48:09;10.50;;;8.35;;
56927;SDS011;60850;52.502;13.426;2023-05-15T01:50:37;10.93;;;8.65;;
56927;SDS011;60850;52.502;13.426;2023-05-15T01:53:06;11.88;;;8.60;;
56927;SDS011;60850;52.502;13.426;2023-05-15T01:55:34;12.52;;;9.43;;
56927;SDS011;60850;52.502;13.426;2023-05-15T01:58:03;12.07;;;9.40;;
56927;SDS011;60850;52.502;13.426;2023-05-15T02:00:32;15.02;;;9.38;;
56927;SDS011;60850;52.502;13.426;2023-05-15T02:03:00;14.18;;;9.75;;
56927;SDS011;60850;52.502;13.426;2023-05-15T02:05:28;16.92;;;11.18;;
56927;SDS011;60850;52.502;13.426;2023-05-15T02:07:56;14.65;;;9.90;;
56927;SDS011;60850;52.502;13.426;2023-05-15T02:10:23;13.45;;;10.20;;
56927;SDS011;60850;52.502;13.426;2023-05-15T02:12:51;13.43;;;9.93;;
56927;SDS011;60850;52.502;13.426;2023-05-15T02:15:20;15.60;;;10.55;;
56927;SDS011;60850;52.502;13.426;2023-05-15T02:17:50;13.85;;;10.18;;
56927;SDS011;60850;52.502;13.426;2023-05-15T02:20:17;15.15;;;10.63;;
56927;SDS011;60850;52.502;13.426;2023-05-15T02:22:44;14.95;;;10.43;;
56927;SDS011;60850;52.502;13.426;2023-05-15T02:25:10;14.73;;;10.63;;
56927;SDS011;60850;52.502;13.426;2023-05-15T02:27:39;15.52;;;11.30;;
56927;SDS011;60850;52.502;13.426;2023-05-15T02:30:18;14.52;;;11.00;;
56927;SDS011;60850;52.502;13.426;2023-05-15T02:32:55;14.95;;;10.68;;
56927;SDS011;60850;52.502;13.426;2023-05-15T02:35:31;13.85;;;10.70;;
56927;SDS011;60850;52.502;13.426;2023-05-15T02:38:05;16.15;;;11.57;;
56927;SDS011;60850;52.502;13.426;2023-05-15T02:40:33;19.23;;;11.52;;
56927;SDS011;60850;52.502;13.426;2023-05-15T02:43:03;14.30;;;10.40;;
56927;SDS011;60850;52.502;13.426;2023-05-15T02:45:31;17.27;;;12.02;;
56927;SDS011;60850;52.502;13.426;2023-05-15T02:48:01;14.73;;;10.90;;
56927;SDS011;60850;52.502;13.426;2023-05-15T02:50:28;16.58;;;11.27;;
56927;SDS011;60850;52.502;13.426;2023-05-15T02:53:02;16.40;;;11.15;;
56927;SDS011;60850;52.502;13.426;2023-05-15T02:55:29;18.33;;;10.93;;
56927;SDS011;60850;52.502;13.426;2023-05-15T02:57:56;18.13;;;11.15;;
56927;SDS011;60850;52.502;13.426;2023-05-15T03:00:24;19.02;;;12.05;;
56927;SDS011;60850;52.502;13.426;2023-05-15T03:02:51;14.73;;;11.50;;
56927;SDS011;60850;52.502;13.426;2023-05-15T03:05:19;17.23;;;11.50;;
56927;SDS011;60850;52.502;13.426;2023-05-15T03:07:46;15.20;;;11.13;;
56927;SDS011;60850;52.502;13.426;2023-05-15T03:10:13;15.38;;;11.10;;
56927;SDS011;60850;52.502;13.426;2023-05-15T03:12:40;15.07;;;11.35;;
56927;SDS011;60850;52.502;13.426;2023-05-15T03:15:07;16.67;;;11.90;;
56927;SDS011;60850;52.502;13.426;2023-05-15T03:17:34;14.80;;;11.35;;
56927;SDS011;60850;52.502;13.426;2023-05-15T03:20:01;16.48;;;11.82;;
56927;SDS011;60850;52.502;13.426;2023-05-15T03:22:30;15.43;;;11.38;;
56927;SDS011;60850;52.502;13.426;2023-05-15T03:24:57;21.35;;;12.82;;
56927;SDS011;60850;52.502;13.426;2023-05-15T03:27:26;17.58;;;11.88;;
56927;SDS011;60850;52.502;13.426;2023-05-15T03:29:52;14.88;;;11.32;;
56927;SDS011;60850;52.502;13.426;2023-05-15T03:32:19;17.63;;;12.18;;
56927;SDS011;60850;52.502;13.426;2023-05-15T03:34:46;14.85;;;11.68;;
56927;SDS011;60850;52.502;13.426;2023-05-15T03:37:13;20.05;;;11.90;;
56927;SDS011;60850;52.502;13.426;2023-05-15T03:39:41;16.75;;;11.93;;
56927;SDS011;60850;52.502;13.426;2023-05-15T03:42:08;17.38;;;11.75;;
56927;SDS011;60850;52.502;13.426;2023-05-15T03:44:35;20.40;;;12.10;;
56927;SDS011;60850;52.502;13.426;2023-05-15T03:47:02;19.90;;;11.90;;
56927;SDS011;60850;52.502;13.426;2023-05-15T03:49:29;15.45;;;11.52;;
56927;SDS011;60850;52.502;13.426;2023-05-15T03:51:56;18.48;;;11.55;;
56927;SDS011;60850;52.502;13.426;2023-05-15T03:54:24;17.08;;;12.10;;
56927;SDS011;60850;52.502;13.426;2023-05-15T03:56:52;16.13;;;11.93;;
56927;SDS011;60850;52.502;13.426;2023-05-15T03:59:19;15.20;;;12.35;;
56927;SDS011;60850;52.502;13.426;2023-05-15T04:01:46;15.35;;;11.93;;
56927;SDS011;60850;52.502;13.426;2023-05-15T04:06:39;15.20;;;11.82;;
56927;SDS011;60850;52.502;13.426;2023-05-15T04:09:06;17.17;;;11.77;;
56927;SDS011;60850;52.502;13.426;2023-05-15T04:11:34;19.15;;;13.27;;
56927;SDS011;60850;52.502;13.426;2023-05-15T04:14:02;15.25;;;11.80;;
56927;SDS011;60850;52.502;13.426;2023-05-15T04:16:29;16.38;;;12.52;;
56927;SDS011;60850;52.502;13.426;2023-05-15T04:18:56;15.93;;;11.30;;
56927;SDS011;60850;52.502;13.426;2023-05-15T04:21:23;19.33;;;12.95;;
56927;SDS011;60850;52.502;13.426;2023-05-15T04:23:49;15.30;;;11.70;;
56927;SDS011;60850;52.502;13.426;2023-05-15T04:26:16;18.23;;;11.73;;
56927;SDS011;60850;52.502;13.426;2023-05-15T04:28:43;18.90;;;12.40;;
56927;SDS011;60850;52.502;13.426;2023-05-15T04:31:12;18.13;;;12.18;;
56927;SDS011;60850;52.502;13.426;2023-05-15T04:33:38;16.67;;;11.57;;
56927;SDS011;60850;52.502;13.426;2023-05-15T04:36:06;16.15;;;11.80;;
56927;SDS011;60850;52.502;13.426;2023-05-15T04:38:33;16.13;;;11.27;;
56927;SDS011;60850;52.502;13.426;2023-05-15T04:41:00;15.38;;;11.10;;
56927;SDS011;60850;52.502;13.426;2023-05-15T04:43:27;17.48;;;11.50;;
56927;SDS011;60850;52.502;13.426;2023-05-15T04:45:54;15.38;;;11.15;;
56927;SDS011;60850;52.502;13.426;2023-05-15T04:48:22;16.17;;;11.57;;
56927;SDS011;60850;52.502;13.426;2023-05-15T04:50:49;17.42;;;11.95;;
56927;SDS011;60850;52.502;13.426;2023-05-15T04:53:16;16.75;;;11.88;;
56927;SDS011;60850;52.502;13.426;2023-05-15T04:55:43;16.77;;;11.98;;
56927;SDS011;60850;52.502;13.426;2023-05-15T04:58:10;14.90;;;11.40;;
56927;SDS011;60850;52.502;13.426;2023-05-15T05:00:37;13.75;;;10.02;;
56927;SDS011;60850;52.502;13.426;2023-05-15T05:03:04;15.32;;;11.07;;
56927;SDS011;60850;52.502;13.426;2023-05-15T05:05:32;16.77;;;11.57;;
56927;SDS011;60850;52.502;13.426;2023-05-15T05:07:59;14.45;;;10.88;;
56927;SDS011;60850;52.502;13.426;2023-05-15T05:10:26;16.02;;;11.27;;
56927;SDS011;60850;52.502;13.426;2023-05-15T05:12:53;13.65;;;10.35;;
56927;SDS011;60850;52.502;13.426;2023-05-15T05:15:20;12.80;;;10.00;;
56927;SDS011;60850;52.502;13.426;2023-05-15T05:17:47;15.52;;;10.40;;
56927;SDS011;60850;52.502;13.426;2023-05-15T05:20:14;14.38;;;9.93;;
56927;SDS011;60850;52.502;13.426;2023-05-15T05:22:42;12.55;;;9.52;;
56927;SDS011;60850;52.502;13.426;2023-05-15T05:25:09;15.48;;;10.13;;
56927;SDS011;60850;52.502;13.426;2023-05-15T05:27:36;10.93;;;8.82;;
56927;SDS011;60850;52.502;13.426;2023-05-15T05:30:03;11.45;;;8.65;;
56927;SDS011;60850;52.502;13.426;2023-05-15T05:32:31;11.68;;;8.23;;
56927;SDS011;60850;52.502;13.426;2023-05-15T05:34:58;12.98;;;8.43;;
56927;SDS011;60850;52.502;13.426;2023-05-15T05:37:25;9.50;;;7.80;;
56927;SDS011;60850;52.502;13.426;2023-05-15T05:39:53;11.02;;;7.82;;
56927;SDS011;60850;52.502;13.426;2023-05-15T05:42:20;12.45;;;7.70;;
56927;SDS011;60850;52.502;13.426;2023-05-15T05:44:47;10.80;;;7.75;;
56927;SDS011;60850;52.502;13.426;2023-05-15T05:47:14;7.80;;;6.82;;
56927;SDS011;60850;52.502;13.426;2023-05-15T05:49:41;9.05;;;6.82;;
56927;SDS011;60850;52.502;13.426;2023-05-15T05:52:09;10.73;;;7.07;;
56927;SDS011;60850;52.502;13.426;2023-05-15T05:54:36;12.00;;;7.53;;
56927;SDS011;60850;52.502;13.426;2023-05-15T05:57:04;10.82;;;7.35;;
56927;SDS011;60850;52.502;13.426;2023-05-15T05:59:32;11.88;;;8.05;;
56927;SDS011;60850;52.502;13.426;2023-05-15T06:01:59;8.80;;;7.05;;
56927;SDS011;60850;52.502;13.426;2023-05-15T06:04:26;8.98;;;7.63;;
56927;SDS011;60850;52.502;13.426;2023-05-15T06:06:53;13.23;;;7.60;;
56927;SDS011;60850;52.502;13.426;2023-05-15T06:09:20;10.88;;;7.82;;
56927;SDS011;60850;52.502;13.426;2023-05-15T06:11:47;13.13;;;8.15;;
56927;SDS011;60850;52.502;13.426;2023-05-15T06:14:15;15.32;;;8.55;;
56927;SDS011;60850;52.502;13.426;2023-05-15T06:16:42;15.95;;;8.45;;
56927;SDS011;60850;52.502;13.426;2023-05-15T06:19:09;14.45;;;8.25;;
56927;SDS011;60850;52.502;13.426;2023-05-15T06:21:36;9.82;;;8.18;;
56927;SDS011;60850;52.502;13.426;2023-05-15T06:24:03;14.73;;;8.32;;
56927;SDS011;60850;52.502;13.426;2023-05-15T06:26:30;13.75;;;8.65;;
56927;SDS011;60850;52.502;13.426;2023-05-15T06:28:57;14.57;;;9.18;;
56927;SDS011;60850;52.502;13.426;2023-05-15T06:31:25;14.77;;;9.00;;
56927;SDS011;60850;52.502;13.426;2023-05-15T06:33:52;11.65;;;8.13;;
56927;SDS011;60850;52.502;13.426;2023-05-15T06:36:19;11.20;;;8.43;;
56927;SDS011;60850;52.502;13.426;2023-05-15T06:38:46;10.25;;;7.95;;
56927;SDS011;60850;52.502;13.426;2023-05-15T06:41:13;14.30;;;8.43;;
56927;SDS011;60850;52.502;13.426;2023-05-15T06:43:40;12.65;;;8.32;;
56927;SDS011;60850;52.502;13.426;2023-05-15T06:46:07;10.63;;;8.55;;
56927;SDS011;60850;52.502;13.426;2023-05-15T06:48:36;13.90;;;8.23;;
56927;SDS011;60850;52.502;13.426;2023-05-15T06:51:02;11.63;;;7.95;;
56927;SDS011;60850;52.502;13.426;2023-05-15T06:53:30;18.50;;;9.13;;
56927;SDS011;60850;52.502;13.426;2023-05-15T06:55:56;10.25;;;8.00;;
56927;SDS011;60850;52.502;13.426;2023-05-15T06:58:23;11.18;;;8.27;;
56927;SDS011;60850;52.502;13.426;2023-05-15T07:00:50;14.90;;;8.27;;
56927;SDS011;60850;52.502;13.426;2023-05-15T07:03:17;10.75;;;7.70;;
56927;SDS011;60850;52.502;13.426;2023-05-15T07:05:46;13.57;;;8.50;;
56927;SDS011;60850;52.502;13.426;2023-05-15T07:08:13;14.95;;;7.88;;
56927;SDS011;60850;52.502;13.426;2023-05-15T07:10:40;11.98;;;8.18;;
56927;SDS011;60850;52.502;13.426;2023-05-15T07:13:07;13.23;;;8.20;;
56927;SDS011;60850;52.502;13.426;2023-05-15T07:15:34;12.90;;;8.20;;
56927;SDS011;60850;52.502;13.426;2023-05-15T07:18:01;12.63;;;7.78;;
56927;SDS011;60850;52.502;13.426;2023-05-15T07:20:28;11.25;;;7.75;;
56927;SDS011;60850;52.502;13.426;2023-05-15T07:22:56;13.48;;;7.63;;
56927;SDS011;60850;52.502;13.426;2023-05-15T07:25:23;11.07;;;6.80;;
56927;SDS011;60850;52.502;13.426;2023-05-15T07:27:50;12.52;;;7.38;;
56927;SDS011;60850;52.502;13.426;2023-05-15T07:30:17;10.35;;;7.53;;
56927;SDS011;60850;52.502;13.426;2023-05-15T07:32:45;14.82;;;6.93;;
56927;SDS011;60850;52.502;13.426;2023-05-15T07:35:11;11.43;;;7.47;;
56927;SDS011;60850;52.502;13.426;2023-05-15T07:37:38;12.10;;;7.13;;
56927;SDS011;60850;52.502;13.426;2023-05-15T07:40:07;9.45;;;6.68;;
56927;SDS011;60850;52.502;13.426;2023-05-15T07:42:35;11.23;;;7.13;;
56927;SDS011;60850;52.502;13.426;2023-05-15T07:45:04;10.80;;;6.60;;
56927;SDS011;60850;52.502;13.426;2023-05-15T07:47:32;11.70;;;7.53;;
56927;SDS011;60850;52.502;13.426;2023-05-15T07:49:59;11.80;;;6.47;;
56927;SDS011;60850;52.502;13.426;2023-05-15T07:52:26;7.60;;;6.20;;
56927;SDS011;60850;52.502;13.426;2023-05-15T07:54:53;11.82;;;6.65;;
56927;SDS011;60850;52.502;13.426;2023-05-15T07:57:21;10.10;;;5.80;;
56927;SDS011;60850;52.502;13.426;2023-05-15T07:59:49;6.38;;;5.43;;
56927;SDS011;60850;52.502;13.426;2023-05-15T08:02:16;9.52;;;5.93;;
56927;SDS011;60850;52.502;13.426;2023-05-15T08:04:43;11.75;;;6.35;;
56927;SDS011;60850;52.502;13.426;2023-05-15T08:07:11;10.40;;;6.25;;
56927;SDS011;60850;52.502;13.426;2023-05-15T08:09:38;7.65;;;5.53;;
56927;SDS011;60850;52.502;13.426;2023-05-15T08:12:15;11.45;;;6.25;;
56927;SDS011;60850;52.502;13.426;2023-05-15T08:14:47;8.32;;;5.70;;
56927;SDS011;60850;52.502;13.426;2023-05-15T08:17:14;9.52;;;5.68;;
56927;SDS011;60850;52.502;13.426;2023-05-15T08:19:41;8.80;;;6.03;;
56927;SDS011;60850;52.502;13.426;2023-05-15T08:22:08;9.73;;;5.25;;
56927;SDS011;60850;52.502;13.426;2023-05-15T08:24:35;9.50;;;5.18;;
56927;SDS011;60850;52.502;13.426;2023-05-15T08:27:03;9.70;;;5.60;;
56927;SDS011;60850;52.502;13.426;2023-05-15T08:29:30;7.13;;;5.68;;
56927;SDS011;60850;52.502;13.426;2023-05-15T08:31:58;9.45;;;5.47;;
56927;SDS011;60850;52.502;13.426;2023-05-15T08:34:25;11.13;;;4.90;;
56927;SDS011;60850;52.502;13.426;2023-05-15T08:36:52;7.90;;;5.50;;
56927;SDS011;60850;52.502;13.426;2023-05-15T08:39:20;11.32;;;5.15;;
56927;SDS011;60850;52.502;13.426;2023-05-15T08:41:49;9.48;;;5.20;;
56927;SDS011;60850;52.502;13.426;2023-05-15T08:44:21;9.98;;;5.57;;
56927;SDS011;60850;52.502;13.426;2023-05-15T08:46:49;8.52;;;5.13;;
56927;SDS011;60850;52.502;13.426;2023-05-15T08:49:21;10.73;;;5.80;;
56927;SDS011;60850;52.502;13.426;2023-05-15T08:51:57;7.45;;;4.90;;
56927;SDS011;60850;52.502;13.426;2023-05-15T08:54:24;9.70;;;5.47;;
56927;SDS011;60850;52.502;13.426;2023-05-15T08:56:51;11.38;;;6.78;;
56927;SDS011;60850;52.502;13.426;2023-05-15T08:59:18;8.20;;;5.50;;
56927;SDS011;60850;52.502;13.426;2023-05-15T09:01:45;11.05;;;5.22;;
56927;SDS011;60850;52.502;13.426;2023-05-15T09:04:12;7.32;;;5.43;;
56927;SDS011;60850;52.502;13.426;2023-05-15T09:06:40;8.98;;;5.20;;
56927;SDS011;60850;52.502;13.426;2023-05-15T09:09:09;11.75;;;5.68;;
56927;SDS011;60850;52.502;13.426;2023-05-15T09:11:38;12.70;;;5.30;;
56927;SDS011;60850;52.502;13.426;2023-05-15T09:14:09;9.02;;;6.25;;
56927;SDS011;60850;52.502;13.426;2023-05-15T09:16:36;6.55;;;5.03;;
56927;SDS011;60850;52.502;13.426;2023-05-15T09:19:03;10.07;;;5.27;;
56927;SDS011;60850;52.502;13.426;2023-05-15T09:21:31;5.93;;;4.68;;
56927;SDS011;60850;52.502;13.426;2023-05-15T09:26:59;5.60;;;4.72;;
56927;SDS011;60850;52.502;13.426;2023-05-15T09:29:28;9.00;;;4.70;;
56927;SDS011;60850;52.502;13.426;2023-05-15T09:31:56;8.75;;;5.20;;
56927;SDS011;60850;52.502;13.426;2023-05-15T09:34:28;10.02;;;5.65;;
56927;SDS011;60850;52.502;13.426;2023-05-15T09:36:56;6.63;;;4.95;;
56927;SDS011;60850;52.502;13.426;2023-05-15T09:39:24;9.93;;;5.10;;
56927;SDS011;60850;52.502;13.426;2023-05-15T09:41:51;6.97;;;5.55;;
56927;SDS011;60850;52.502;13.426;2023-05-15T09:44:18;10.43;;;5.50;;
56927;SDS011;60850;52.502;13.426;2023-05-15T09:46:49;8.25;;;5.30;;
56927;SDS011;60850;52.502;13.426;2023-05-15T09:49:16;11.95;;;5.32;;
56927;SDS011;60850;52.502;13.426;2023-05-15T09:51:44;10.80;;;5.05;;
56927;SDS011;60850;52.502;13.426;2023-05-15T09:54:16;6.53;;;4.60;;
56927;SDS011;60850;52.502;13.426;2023-05-15T09:56:45;9.65;;;5.57;;
56927;SDS011;60850;52.502;13.426;2023-05-15T09:59:13;10.23;;;4.75;;
56927;SDS011;60850;52.502;13.426;2023-05-15T10:01:41;9.07;;;5.30;;
56927;SDS011;60850;52.502;13.426;2023-05-15T10:04:10;7.35;;;5.70;;
56927;SDS011;60850;52.502;13.426;2023-05-15T10:06:38;7.68;;;5.68;;
56927;SDS011;60850;52.502;13.426;2023-05-15T10:09:07;9.45;;;5.20;;
56927;SDS011;60850;52.502;13.426;2023-05-15T10:11:35;9.35;;;5.15;;
56927;SDS011;60850;52.502;13.426;2023-05-15T10:14:04;7.75;;;5.28;;
56927;SDS011;60850;52.502;13.426;2023-05-15T10:16:33;7.72;;;5.28;;
56927;SDS011;60850;52.502;13.426;2023-05-15T10:19:02;8.43;;;5.60;;
56927;SDS011;60850;52.502;13.426;2023-05-15T10:21:30;9.48;;;5.35;;
56927;SDS011;60850;52.502;13.426;2023-05-15T10:23:59;12.63;;;5.60;;
56927;SDS011;60850;52.502;13.426;2023-05-15T10:26:28;7.50;;;5.07;;
56927;SDS011;60850;52.502;13.426;2023-05-15T10:29:00;8.52;;;4.57;;
56927;SDS011;60850;52.502;13.426;2023-05-15T10:31:31;10.73;;;4.80;;
56927;SDS011;60850;52.502;13.426;2023-05-15T10:33:59;8.43;;;4.70;;
56927;SDS011;60850;52.502;13.426;2023-05-15T10:36:26;7.88;;;5.18;;
56927;SDS011;60850;52.502;13.426;2023-05-15T10:38:53;13.68;;;5.03;;
56927;SDS011;60850;52.502;13.426;2023-05-15T10:41:20;6.82;;;5.07;;
56927;SDS011;60850;52.502;13.426;2023-05-15T10:43:49;8.00;;;4.75;;
56927;SDS011;60850;52.502;13.426;2023-05-15T10:46:19;7.90;;;4.57;;
56927;SDS011;60850;52.502;13.426;2023-05-15T10:48:48;5.72;;;4.60;;
56927;SDS011;60850;52.502;13.426;2023-05-15T10:51:16;7.78;;;4.43;;
56927;SDS011;60850;52.502;13.426;2023-05-15T10:53:44;6.28;;;4.53;;
56927;SDS011;60850;52.502;13.426;2023-05-15T10:56:12;8.90;;;5.15;;
56927;SDS011;60850;52.502;13.426;2023-05-15T10:58:43;6.22;;;4.63;;
56927;SDS011;60850;52.502;13.426;2023-05-15T11:01:25;9.23;;;4.22;;
56927;SDS011;60850;52.502;13.426;2023-05-15T11:04:04;7.43;;;3.72;;
56927;SDS011;60850;52.502;13.426;2023-05-15T11:06:33;5.30;;;3.97;;
56927;SDS011;60850;52.502;13.426;2023-05-15T11:14:34;6.07;;;4.35;;
56927;SDS011;60850;52.502;13.426;2023-05-15T11:17:02;5.18;;;4.30;;
56927;SDS011;60850;52.502;13.426;2023-05-15T11:19:32;5.07;;;3.83;;
56927;SDS011;60850;52.502;13.426;2023-05-15T11:22:02;9.82;;;6.90;;
56927;SDS011;60850;52.502;13.426;2023-05-15T11:24:48;4.50;;;3.50;;
56927;SDS011;60850;52.502;13.426;2023-05-15T11:27:21;3.97;;;3.10;;
56927;SDS011;60850;52.502;13.426;2023-05-15T11:32:43;6.78;;;3.30;;
56927;SDS011;60850;52.502;13.426;2023-05-15T11:35:19;4.10;;;2.95;;
56927;SDS011;60850;52.502;13.426;2023-05-15T11:37:48;3.70;;;2.67;;
56927;SDS011;60850;52.502;13.426;2023-05-15T11:40:19;2.38;;;2.10;;
56927;SDS011;60850;52.502;13.426;2023-05-15T11:42:58;2.45;;;2.25;;
56927;SDS011;60850;52.502;13.426;2023-05-15T11:45:26;2.40;;;2.20;;
56927;SDS011;60850;52.502;13.426;2023-05-15T11:47:55;4.35;;;2.40;;
56927;SDS011;60850;52.502;13.426;2023-05-15T11:50:24;5.95;;;3.80;;
56927;SDS011;60850;52.502;13.426;2023-05-15T11:52:52;2.78;;;2.47;;
56927;SDS011;60850;52.502;13.426;2023-05-15T11:55:20;5.68;;;2.60;;
56927;SDS011;60850;52.502;13.426;2023-05-15T11:57:47;2.85;;;2.65;;
56927;SDS011;60850;52.502;13.426;2023-05-15T12:00:15;3.97;;;2.75;;
56927;SDS011;60850;52.502;13.426;2023-05-15T12:02:42;4.45;;;2.83;;
56927;SDS011;60850;52.502;13.426;2023-05-15T12:05:09;4.85;;;2.72;;
56927;SDS011;60850;52.502;13.426;2023-05-15T12:07:39;3.00;;;2.50;;
56927;SDS011;60850;52.502;13.426;2023-05-15T12:10:08;3.92;;;2.78;;
56927;SDS011;60850;52.502;13.426;2023-05-15T12:12:37;5.40;;;2.88;;
56927;SDS011;60850;52.502;13.426;2023-05-15T12:15:07;3.55;;;2.92;;
56927;SDS011;60850;52.502;13.426;2023-05-15T12:17:36;3.63;;;2.50;;
56927;SDS011;60850;52.502;13.426;2023-05-15T12:20:04;3.67;;;2.20;;
56927;SDS011;60850;52.502;13.426;2023-05-15T12:22:35;4.75;;;2.42;;
56927;SDS011;60850;52.502;13.426;2023-05-15T12:25:05;3.13;;;2.42;;
56927;SDS011;60850;52.502;13.426;2023-05-15T12:27:32;3.15;;;2.35;;
56927;SDS011;60850;52.502;13.426;2023-05-15T12:30:00;3.13;;;2.50;;
56927;SDS011;60850;52.502;13.426;2023-05-15T12:32:28;4.35;;;2.70;;
56927;SDS011;60850;52.502;13.426;2023-05-15T12:34:56;2.72;;;2.20;;
56927;SDS011;60850;52.502;13.426;2023-05-15T12:37:23;3.25;;;2.30;;
56927;SDS011;60850;52.502;13.426;2023-05-15T12:39:55;3.90;;;2.50;;
56927;SDS011;60850;52.502;13.426;2023-05-15T12:42:25;2.80;;;2.35;;
56927;SDS011;60850;52.502;13.426;2023-05-15T12:44:53;3.78;;;2.90;;
56927;SDS011;60850;52.502;13.426;2023-05-15T12:47:21;4.00;;;2.30;;
56927;SDS011;60850;52.502;13.426;2023-05-15T12:49:48;2.45;;;2.10;;
56927;SDS011;60850;52.502;13.426;2023-05-15T12:52:15;2.28;;;1.80;;
56927;SDS011;60850;52.502;13.426;2023-05-15T12:54:42;3.00;;;2.05;;
56927;SDS011;60850;52.502;13.426;2023-05-15T12:57:12;2.50;;;2.30;;
56927;SDS011;60850;52.502;13.426;2023-05-15T12:59:39;2.50;;;2.00;;
56927;SDS011;60850;52.502;13.426;2023-05-15T13:02:08;2.60;;;2.40;;
56927;SDS011;60850;52.502;13.426;2023-05-15T13:04:35;3.92;;;2.60;;
56927;SDS011;60850;52.502;13.426;2023-05-15T13:07:03;2.80;;;2.53;;
56927;SDS011;60850;52.502;13.426;2023-05-15T13:09:30;4.85;;;3.08;;
56927;SDS011;60850;52.502;13.426;2023-05-15T13:12:00;4.60;;;2.50;;
56927;SDS011;60850;52.502;13.426;2023-05-15T13:14:32;2.70;;;2.15;;
56927;SDS011;60850;52.502;13.426;2023-05-15T13:17:00;3.55;;;2.63;;
56927;SDS011;60850;52.502;13.426;2023-05-15T13:19:27;5.38;;;3.60;;
56927;SDS011;60850;52.502;13.426;2023-05-15T13:21:55;4.10;;;3.70;;
56927;SDS011;60850;52.502;13.426;2023-05-15T13:24:22;3.45;;;3.10;;
56927;SDS011;60850;52.502;13.426;2023-05-15T13:26:49;5.05;;;3.38;;
56927;SDS011;60850;52.502;13.426;2023-05-15T13:29:16;4.80;;;2.78;;
56927;SDS011;60850;52.502;13.426;2023-05-15T13:31:45;3.47;;;2.67;;
56927;SDS011;60850;52.502;13.426;2023-05-15T13:34:12;4.95;;;2.83;;
56927;SDS011;60850;52.502;13.426;2023-05-15T13:36:39;7.38;;;2.10;;
56927;SDS011;60850;52.502;13.426;2023-05-15T13:39:06;8.50;;;2.17;;
56927;SDS011;60850;52.502;13.426;2023-05-15T13:41:35;6.38;;;1.50;;
56927;SDS011;60850;52.502;13.426;2023-05-15T13:44:02;4.63;;;1.63;;
56927;SDS011;60850;52.502;13.426;2023-05-15T13:46:29;9.15;;;2.15;;
56927;SDS011;60850;52.502;13.426;2023-05-15T13:48:57;5.95;;;1.73;;
56927;SDS011;60850;52.502;13.426;2023-05-15T13:51:24;5.32;;;1.55;;
56927;SDS011;60850;52.502;13.426;2023-05-15T13:53:51;7.40;;;1.80;;
56927;SDS011;60850;52.502;13.426;2023-05-15T13:56:18;1.70;;;1.30;;
56927;SDS011;60850;52.502;13.426;2023-05-15T13:58:44;4.65;;;1.77;;
56927;SDS011;60850;52.502;13.426;2023-05-15T14:01:11;5.15;;;2.33;;
56927;SDS011;60850;52.502;13.426;2023-05-15T14:03:38;2.08;;;1.42;;
56927;SDS011;60850;52.502;13.426;2023-05-15T14:06:07;5.00;;;1.73;;
56927;SDS011;60850;52.502;13.426;2023-05-15T14:08:33;3.28;;;1.90;;
56927;SDS011;60850;52.502;13.426;2023-05-15T14:11:00;3.20;;;1.85;;
56927;SDS011;60850;52.502;13.426;2023-05-15T14:13:27;2.53;;;2.20;;
56927;SDS011;60850;52.502;13.426;2023-05-15T14:15:56;3.00;;;1.90;;
56927;SDS011;60850;52.502;13.426;2023-05-15T14:18:22;3.65;;;2.42;;
56927;SDS011;60850;52.502;13.426;2023-05-15T14:20:50;4.65;;;2.50;;
56927;SDS011;60850;52.502;13.426;2023-05-15T14:23:19;4.28;;;2.45;;
56927;SDS011;60850;52.502;13.426;2023-05-15T14:25:46;3.28;;;2.50;;
56927;SDS011;60850;52.502;13.426;2023-05-15T14:28:12;4.57;;;2.38;;
56927;SDS011;60850;52.502;13.426;2023-05-15T14:30:39;3.30;;;2.30;;
56927;SDS011;60850;52.502;13.426;2023-05-15T14:33:06;4.65;;;2.60;;
56927;SDS011;60850;52.502;13.426;2023-05-15T14:35:34;4.10;;;2.95;;
56927;SDS011;60850;52.502;13.426;2023-05-15T14:38:01;2.88;;;2.60;;
56927;SDS011;60850;52.502;13.426;2023-05-15T14:40:29;3.50;;;2.70;;
56927;SDS011;60850;52.502;13.426;2023-05-15T14:42:56;3.65;;;2.65;;